Time;durP1;ratioP1;P1;durP2;ratioP2;P2;SDS_P1;SDS_P2;PMS_P1;PMS_P2;Temp;Humidity;BMP_temperature;BMP_pressure;BME280_temperature;BME280_humidity;BME280_pressure;Samples;Min_cycle;Max_cycle;Signal;HPM_P1;HPM_P2
2023/08/17 00:00:35;;;;;;;9.85;3.40;;;18.20;99.90;;;17.38;100.00;101858.00;4921715;28;20075;-75
2023/08/17 00:03:00;;;;;;;13.00;2.50;;;18.20;99.90;;;17.40;100.00;101861.44;4926011;28;20526;-75
2023/08/17 00:05:27;;;;;;;15.05;3.13;;;18.20;99.90;;;17.37;100.00;101856.31;4918673;28;20085;-74
2023/08/17 00:07:53;;;;;;;8.18;2.33;;;18.20;99.90;;;17.37;100.00;101856.31;4906508;28;20039;-75
2023/08/17 00:10:19;;;;;;;11.13;3.20;;;18.20;99.90;;;17.36;100.00;101857.25;4924709;28;20110;-74
2023/08/17 00:12:45;;;;;;;9.38;3.13;;;18.20;99.90;;;17.37;100.00;101848.31;4932444;28;20086;-74
2023/08/17 00:15:11;;;;;;;12.55;4.45;;;18.20;99.90;;;17.39;100.00;101854.41;4907429;29;20126;-75
2023/08/17 00:17:36;;;;;;;16.23;5.55;;;18.20;99.90;;;17.39;100.00;101853.56;4926271;28;20118;-74
2023/08/17 00:20:05;;;;;;;12.50;5.15;;;18.20;99.90;;;17.39;100.00;101851.75;4918219;28;20031;-75
2023/08/17 00:22:30;;;;;;;12.32;4.63;;;18.20;99.90;;;17.40;100.00;101848.13;4918966;28;20036;-75
2023/08/17 00:25:02;;;;;;;13.43;4.22;;;18.20;99.90;;;17.42;100.00;101854.22;4940676;28;20045;-74
2023/08/17 00:27:28;;;;;;;15.30;4.45;;;18.20;99.90;;;17.42;100.00;101843.59;4916727;28;20127;-75
2023/08/17 00:29:54;;;;;;;12.80;3.83;;;18.20;99.90;;;17.43;100.00;101847.97;4892351;28;20063;-74
2023/08/17 00:32:20;;;;;;;19.50;4.10;;;18.20;99.90;;;17.44;100.00;101848.84;4940767;28;20501;-75
2023/08/17 00:34:45;;;;;;;18.30;4.38;;;18.30;99.90;;;17.46;100.00;101854.94;4934420;28;20046;-75
2023/08/17 00:37:11;;;;;;;12.75;4.30;;;18.20;99.90;;;17.47;100.00;101856.63;4941436;28;20545;-74
2023/08/17 00:39:39;;;;;;;12.15;4.03;;;18.30;99.90;;;17.47;100.00;101863.75;4938813;28;21637;-74
2023/08/17 00:42:07;;;;;;;14.43;4.60;;;18.20;99.90;;;17.46;100.00;101870.91;4929050;28;20079;-74
2023/08/17 00:44:33;;;;;;;16.17;4.50;;;18.20;99.90;;;17.46;100.00;101870.91;4919481;28;20038;-75
2023/08/17 00:46:59;;;;;;;13.27;4.20;;;18.30;99.90;;;17.49;100.00;101869.88;4933670;29;20066;-75
2023/08/17 00:49:25;;;;;;;15.52;4.28;;;18.30;99.90;;;17.51;100.00;101867.97;4931795;28;21436;-74
2023/08/17 00:51:51;;;;;;;16.50;4.80;;;18.30;99.90;;;17.52;100.00;101861.72;4916980;29;20386;-75
2023/08/17 00:54:27;;;;;;;18.55;5.88;;;18.30;99.90;;;17.52;100.00;101864.38;4922594;28;20039;-76
2023/08/17 00:56:54;;;;;;;21.95;5.32;;;18.30;99.90;;;17.51;100.00;101865.31;4912937;28;20027;-75
2023/08/17 00:59:22;;;;;;;22.38;4.80;;;18.30;99.90;;;17.51;100.00;101867.97;4899676;28;20384;-74
2023/08/17 01:01:48;;;;;;;16.42;5.05;;;18.30;99.90;;;17.54;100.00;101867.81;4941205;28;20043;-74
2023/08/17 01:04:14;;;;;;;15.48;5.50;;;18.30;99.90;;;17.57;100.00;101878.28;4916901;28;20038;-75
2023/08/17 01:06:40;;;;;;;16.02;5.63;;;18.40;99.90;;;17.59;100.00;101865.72;4910096;28;20051;-74
2023/08/17 01:09:06;;;;;;;;;;;18.30;99.90;;;17.53;100.00;101856.28;4927321;28;20035;-75
2023/08/17 01:11:40;;;;;;;20.73;6.13;;;18.30;99.90;;;17.49;100.00;101854.75;4940852;28;19969;-75
2023/08/17 01:14:23;;;;;;;12.23;5.43;;;18.30;99.90;;;17.47;100.00;101839.81;4900781;28;20032;-74
2023/08/17 01:17:30;;;;;;;11.07;4.30;;;18.30;99.90;;;17.46;100.00;101841.63;4935895;28;20175;-74
2023/08/17 01:19:58;;;;;;;10.80;3.53;;;18.30;99.90;;;17.42;100.00;101846.25;4933410;28;20036;-75
2023/08/17 01:22:26;;;;;;;15.65;4.20;;;18.20;99.90;;;17.45;100.00;101850.56;4933457;28;20505;-75
2023/08/17 01:24:58;;;;;;;16.65;3.95;;;18.30;99.90;;;17.48;100.00;101852.19;4915643;28;20114;-75
2023/08/17 01:27:24;;;;;;;13.43;3.58;;;18.30;99.90;;;17.49;100.00;101854.75;4941912;28;20402;-75
2023/08/17 01:29:52;;;;;;;19.70;4.65;;;18.30;99.90;;;17.50;100.00;101852.97;4916450;28;20288;-75
2023/08/17 01:32:34;;;;;;;12.10;4.78;;;18.30;99.90;;;17.52;100.00;101859.91;4939367;28;20640;-74
2023/08/17 01:35:42;;;;;;;17.60;5.10;;;18.30;99.90;;;17.52;100.00;101856.38;4938784;28;20062;-75
2023/08/17 01:38:17;;;;;;;15.75;5.10;;;18.30;99.90;;;17.46;100.00;101854.94;4937020;28;20051;-75
2023/08/17 01:40:45;;;;;;;16.83;4.63;;;18.30;99.90;;;17.48;100.00;101857.50;4905611;28;20032;-75
2023/08/17 01:43:13;;;;;;;22.15;4.85;;;18.30;99.90;;;17.44;100.00;101851.50;4933951;28;20043;-74
2023/08/17 01:45:38;;;;;;;15.48;4.50;;;18.20;99.90;;;17.44;100.00;101854.16;4929459;28;20099;-75
2023/08/17 01:48:04;;;;;;;13.65;4.75;;;18.20;99.90;;;17.43;100.00;101849.78;4935709;28;20196;-75
2023/08/17 01:50:30;;;;;;;16.58;4.95;;;18.20;99.90;;;17.41;100.00;101851.69;4914759;28;20050;-75
2023/08/17 01:52:56;;;;;;;13.05;4.43;;;18.20;99.90;;;17.42;100.00;101856.91;4921322;28;20040;-74
2023/08/17 01:55:23;;;;;;;14.90;4.45;;;18.20;99.90;;;17.46;100.00;101856.75;4908128;28;20118;-75
2023/08/17 01:57:49;;;;;;;10.70;4.55;;;18.20;99.90;;;17.44;100.00;101848.84;4941198;28;20587;-75
2023/08/17 02:00:15;;;;;;;16.15;4.80;;;18.20;99.90;;;17.39;100.00;101848.25;4931072;28;20038;-74
2023/08/17 02:02:41;;;;;;;14.07;4.68;;;18.20;99.90;;;17.36;100.00;101845.75;4934690;28;20377;-75
2023/08/17 02:05:08;;;;;;;17.90;4.35;;;18.20;99.90;;;17.35;100.00;101838.72;4924405;28;20043;-75
2023/08/17 02:07:36;;;;;;;16.77;5.00;;;18.20;99.90;;;17.32;100.00;101836.22;4903367;28;20115;-75
2023/08/17 02:10:05;;;;;;;21.05;4.97;;;18.20;99.90;;;17.35;100.00;101830.72;4878769;28;20054;-74
2023/08/17 02:12:31;;;;;;;14.60;4.88;;;18.20;99.90;;;17.36;100.00;101838.59;4922343;28;20391;-75
2023/08/17 02:14:57;;;;;;;12.50;5.22;;;18.20;99.90;;;17.36;100.00;101829.78;4933542;28;20042;-75
2023/08/17 02:17:22;;;;;;;20.65;5.10;;;18.10;99.90;;;17.33;100.00;101819.31;4933109;28;20089;-75
2023/08/17 02:19:48;;;;;;;14.70;5.30;;;18.10;99.90;;;17.31;100.00;101816.72;4892558;29;20061;-75
2023/08/17 02:22:15;;;;;;;11.95;4.18;;;18.10;99.90;;;17.27;100.00;101811.69;4892632;29;20044;-75
2023/08/17 02:24:41;;;;;;;16.77;4.80;;;18.10;99.90;;;17.24;100.00;101812.72;4856621;29;20568;-75
2023/08/17 02:27:09;;;;;;;11.73;4.30;;;18.10;99.90;;;17.21;100.00;101805.78;4891826;29;20040;-76
2023/08/17 02:29:35;;;;;;;23.70;5.00;;;18.10;99.90;;;17.21;100.00;101804.88;4886372;29;20057;-75
2023/08/17 02:32:01;;;;;;;12.05;4.65;;;18.10;99.90;;;17.17;100.00;101816.66;4892275;29;20461;-75
2023/08/17 02:34:26;;;;;;;11.52;4.05;;;18.00;99.90;;;17.11;100.00;101814.38;4871583;29;20060;-75
2023/08/17 02:36:52;;;;;;;13.45;3.97;;;18.00;99.90;;;17.13;100.00;101817.81;4868828;29;20048;-75
2023/08/17 02:39:18;;;;;;;23.00;4.32;;;18.00;99.90;;;17.18;100.00;101829.03;4877837;29;20032;-75
2023/08/17 02:41:44;;;;;;;14.75;4.22;;;18.00;99.90;;;17.17;100.00;101835.28;4867958;29;20131;-75
2023/08/17 02:44:10;;;;;;;15.05;4.43;;;18.00;99.90;;;17.19;100.00;101828.97;4844548;29;20049;-74
2023/08/17 02:46:36;;;;;;;15.68;4.38;;;18.00;99.90;;;17.19;100.00;101841.38;4858606;29;20063;-75
2023/08/17 02:49:02;;;;;;;20.23;4.90;;;18.00;99.90;;;17.17;100.00;101837.94;4843008;29;20041;-75
2023/08/17 02:51:28;;;;;;;16.40;4.88;;;18.00;99.90;;;17.17;100.00;101837.94;4851579;29;20127;-78
2023/08/17 02:53:54;;;;;;;13.85;4.03;;;18.10;99.90;;;17.22;100.00;101842.06;4879747;29;20063;-75
2023/08/17 02:56:20;;;;;;;12.82;4.38;;;18.10;99.90;;;17.28;100.00;101847.97;4900170;29;20036;-75
2023/08/17 02:58:45;;;;;;;11.07;4.03;;;18.10;99.90;;;17.30;100.00;101844.31;4892865;29;20535;-75
2023/08/17 03:01:11;;;;;;;12.40;3.97;;;18.10;99.90;;;17.33;100.00;101838.78;4877550;29;27129;-75
2023/08/17 03:03:37;;;;;;;8.80;3.45;;;18.20;99.90;;;17.37;100.00;101844.81;4893891;29;20127;-75
2023/08/17 03:06:04;;;;;;;13.68;3.50;;;18.20;99.90;;;17.41;100.00;101849.88;4883816;29;20033;-75
2023/08/17 03:08:29;;;;;;;13.25;3.80;;;18.20;99.90;;;17.45;100.00;101845.25;4877903;29;20127;-75
2023/08/17 03:10:55;;;;;;;12.80;4.05;;;18.20;99.90;;;17.48;100.00;101846.84;4885800;29;20115;-75
2023/08/17 03:13:21;;;;;;;10.38;4.20;;;18.30;99.90;;;17.51;100.00;101847.53;4900547;29;24699;-74
2023/08/17 03:15:47;;;;;;;15.07;4.22;;;18.30;99.90;;;17.53;100.00;101852.75;4924096;28;20086;-74
2023/08/17 03:18:12;;;;;;;;;;;18.30;99.90;;;17.49;100.00;101854.75;4900870;28;20486;-75
2023/08/17 03:20:38;;;;;;;13.77;4.43;;;18.30;99.90;;;17.48;100.00;101860.16;4905651;28;20378;-75
2023/08/17 03:23:07;;;;;;;9.07;3.90;;;18.30;99.90;;;17.50;100.00;101850.28;4942169;28;20753;-75
2023/08/17 03:25:33;;;;;;;11.60;3.83;;;18.30;99.90;;;17.52;100.00;101857.25;4917450;28;20170;-74
2023/08/17 03:28:00;;;;;;;15.38;3.88;;;18.30;99.90;;;17.54;100.00;101859.81;4941154;28;20034;-75
2023/08/17 03:30:26;;;;;;;13.63;3.88;;;18.30;99.90;;;17.54;100.00;101858.00;4934791;28;20046;-74
2023/08/17 03:32:51;;;;;;;12.45;4.20;;;18.30;99.90;;;17.53;100.00;101856.28;4916979;28;20406;-75
2023/08/17 03:35:17;;;;;;;13.77;3.40;;;18.30;99.90;;;17.55;100.00;101864.19;4911211;28;20415;-75
2023/08/17 03:37:52;;;;;;;11.15;3.60;;;18.30;99.90;;;17.56;100.00;101872.09;4913990;28;20143;-75
2023/08/17 03:40:18;;;;;;;13.95;4.13;;;18.30;99.90;;;17.59;100.00;101879.91;4927859;28;20504;-75
2023/08/17 03:42:44;;;;;;;11.75;3.47;;;18.40;99.90;;;17.60;100.00;101886.94;4923358;28;20126;-75
2023/08/17 03:45:10;;;;;;;11.85;3.80;;;18.40;99.90;;;17.61;100.00;101887.81;4918593;28;20044;-75
2023/08/17 03:47:36;;;;;;;15.70;4.53;;;18.40;99.90;;;17.61;100.00;101885.16;4913703;28;20574;-75
2023/08/17 03:50:04;;;;;;;11.27;3.80;;;18.30;99.90;;;17.57;100.00;101892.44;4913643;28;20138;-75
2023/08/17 03:52:29;;;;;;;13.07;3.35;;;18.30;99.90;;;17.57;100.00;101880.94;4904651;28;20040;-75
2023/08/17 03:54:55;;;;;;;15.65;3.28;;;18.30;99.90;;;17.58;100.00;101880.84;4928985;28;20183;-74
2023/08/17 03:57:21;;;;;;;;;;;18.40;99.90;;;17.57;100.00;101878.28;4927310;28;20043;-75
2023/08/17 03:59:47;;;;;;;9.75;4.15;;;18.40;99.90;;;17.57;100.00;101880.94;4948044;28;20390;-76
2023/08/17 04:02:12;;;;;;;;;;;18.30;99.90;;;17.57;100.00;101889.78;4926131;28;20601;-74
2023/08/17 04:04:38;;;;;;;12.93;4.22;;;18.30;99.90;;;17.57;100.00;101886.25;4942629;28;20531;-74
2023/08/17 04:07:06;;;;;;;11.02;3.60;;;18.40;99.90;;;17.60;100.00;101894.94;4941299;28;20126;-74
2023/08/17 04:09:33;;;;;;;13.18;3.47;;;18.40;99.90;;;17.63;100.00;101889.44;4933830;28;20048;-75
2023/08/17 04:11:59;;;;;;;13.07;4.07;;;18.40;99.90;;;17.57;100.00;101888.94;4941416;28;20043;-75
2023/08/17 04:14:25;;;;;;;16.75;4.68;;;18.40;99.90;;;17.50;100.00;101885.75;4922614;28;20397;-74
2023/08/17 04:16:51;;;;;;;19.92;3.75;;;18.40;99.90;;;17.55;100.00;101885.50;4937936;28;20122;-75
2023/08/17 04:19:17;;;;;;;18.05;3.42;;;18.40;99.90;;;17.61;100.00;101887.81;4945068;28;20039;-74
2023/08/17 04:21:48;;;;;;;19.45;3.92;;;18.40;99.90;;;17.62;100.00;101895.72;4936680;28;20822;-76
2023/08/17 04:24:13;;;;;;;17.92;4.22;;;18.40;99.90;;;17.62;100.00;101898.38;4917247;28;20055;-74
2023/08/17 04:26:39;;;;;;;13.05;3.70;;;18.40;99.90;;;17.65;100.00;101897.34;4909708;28;20119;-74
2023/08/17 04:29:05;;;;;;;18.65;4.00;;;18.50;99.90;;;17.66;100.00;101879.53;4897899;28;20125;-75
2023/08/17 04:31:31;;;;;;;16.08;3.50;;;18.50;99.90;;;17.69;100.00;101880.22;4941313;28;20039;-75
2023/08/17 04:33:57;;;;;;;16.25;4.57;;;18.50;99.90;;;17.77;100.00;101877.09;4932322;28;20551;-75
2023/08/17 04:36:23;;;;;;;15.65;4.60;;;18.50;99.90;;;17.82;100.00;101877.75;4951358;28;20126;-74
2023/08/17 04:38:48;;;;;;;18.63;3.75;;;18.60;99.90;;;17.87;100.00;101874.81;4881807;28;20106;-75
2023/08/17 04:41:14;;;;;;;11.05;3.67;;;18.60;99.90;;;17.95;100.00;101880.53;4940250;28;20079;-74
2023/08/17 04:43:40;;;;;;;13.00;3.40;;;18.70;99.90;;;17.98;100.00;101877.69;4884513;28;20058;-75
2023/08/17 04:46:06;;;;;;;12.38;3.42;;;18.70;99.90;;;18.10;100.00;101876.06;4927337;28;20034;-74
2023/08/17 04:48:32;;;;;;;18.20;3.50;;;18.80;99.90;;;18.39;100.00;101883.16;4915341;28;20070;-75
2023/08/17 04:50:57;;;;;;;14.38;3.40;;;19.20;99.90;;;19.01;100.00;101882.06;4908349;28;20071;-75
2023/08/17 04:53:23;;;;;;;9.32;3.15;;;19.70;99.90;;;20.39;95.26;101896.03;4934884;28;20038;-75
2023/08/17 04:55:49;;;;;;;7.57;2.55;;;20.60;99.90;;;21.66;86.20;101894.06;4932882;28;20130;-75
2023/08/17 04:58:22;;;;;;;13.68;2.58;;;21.40;99.90;;;22.55;80.48;101906.06;4934924;28;20039;-75
2023/08/17 05:00:48;;;;;;;11.95;2.58;;;22.40;99.90;;;23.99;74.19;101922.16;4931544;28;20036;-75
2023/08/17 05:03:14;;;;;;;7.78;2.25;;;23.10;99.90;;;24.66;69.38;101927.13;4926383;29;20577;-75
2023/08/17 05:05:39;;;;;;;9.73;2.28;;;23.90;99.90;;;25.90;66.00;101928.59;4931521;28;20119;-75
2023/08/17 05:08:05;;;;;;;15.80;2.03;;;24.50;99.90;;;25.94;64.66;101923.75;4928698;28;20039;-76
2023/08/17 05:10:33;;;;;;;9.98;1.98;;;25.00;99.90;;;27.03;62.46;101939.56;4923991;28;20171;-76
2023/08/17 05:12:59;;;;;;;11.23;2.17;;;25.60;99.90;;;26.73;61.26;101928.03;4921084;28;20094;-76
2023/08/17 05:15:25;;;;;;;8.85;2.30;;;25.40;99.90;;;25.38;64.04;101917.19;4930873;28;20107;-75
2023/08/17 05:17:51;;;;;;;8.10;2.10;;;25.50;99.90;;;27.35;61.05;101942.66;4935681;28;20042;-76
2023/08/17 05:20:16;;;;;;;10.40;2.17;;;26.20;99.90;;;29.01;56.88;101952.78;4925593;28;21544;-76
2023/08/17 05:22:43;;;;;;;6.10;1.52;;;27.10;99.90;;;30.40;53.49;101963.03;4907638;28;20035;-76
2023/08/17 05:25:09;;;;;;;12.30;2.20;;;27.60;99.90;;;30.18;52.35;101953.69;4914160;28;20062;-76
2023/08/17 05:27:40;;;;;;;12.40;2.33;;;28.20;99.90;;;31.47;50.10;101957.25;4928284;29;20043;-77
2023/08/17 05:30:07;;;;;;;9.32;1.73;;;28.50;99.90;;;31.68;49.01;101970.19;4924846;28;20263;-76
2023/08/17 05:32:32;;;;;;;10.93;1.60;;;28.60;99.90;;;30.30;50.38;101948.78;4889117;28;20043;-76
2023/08/17 05:34:58;;;;;;;12.35;1.77;;;28.80;99.90;;;31.64;47.74;101964.28;4905523;28;20122;-76
2023/08/17 05:37:24;;;;;;;8.13;1.75;;;29.10;99.90;;;32.17;47.03;101974.44;4920280;29;20191;-76
2023/08/17 05:39:50;;;;;;;7.53;1.50;;;29.50;99.90;;;33.12;45.18;101987.41;4918796;28;20138;-76
2023/08/17 05:42:25;;;;;;;8.75;2.08;;;30.00;99.90;;;33.25;44.46;101989.47;4907933;28;20043;-76
2023/08/17 05:44:50;;;;;;;7.90;1.70;;;29.70;99.90;;;30.31;48.10;101961.34;4915327;28;20427;-76
2023/08/17 05:47:18;;;;;;;11.35;1.98;;;29.00;99.90;;;28.47;51.95;101938.59;4939642;28;20118;-76
2023/08/17 05:49:47;;;;;;;8.73;1.50;;;28.40;99.90;;;30.96;48.02;101976.66;4921302;28;20106;-76
2023/08/17 05:52:13;;;;;;;5.80;1.80;;;29.00;99.90;;;32.93;44.48;101991.53;4926965;28;20039;-76
2023/08/17 05:54:39;;;;;;;8.27;1.60;;;29.20;99.90;;;30.47;47.86;101957.75;4917720;28;20150;-76
2023/08/17 05:57:05;;;;;;;10.25;1.63;;;29.60;99.90;;;33.28;43.39;101994.53;4923300;28;20047;-76
2023/08/17 05:59:30;;;;;;;5.82;1.27;;;30.10;99.50;;;33.55;42.45;101995.69;4933382;28;20117;-76
2023/08/17 06:01:56;;;;;;;5.57;1.38;;;30.50;99.40;;;33.46;42.68;102003.16;4936968;28;20039;-76
2023/08/17 06:04:22;;;;;;;6.97;1.48;;;30.70;97.90;;;34.20;41.26;102003.94;4924501;28;20118;-76
2023/08/17 06:06:48;;;;;;;6.82;1.60;;;30.50;97.30;;;31.32;43.98;101980.75;4916552;28;20054;-74
2023/08/17 06:09:14;;;;;;;8.25;1.73;;;29.00;98.00;;;27.43;51.39;101941.91;4913832;29;20047;-75
2023/08/17 06:11:40;;;;;;;7.07;1.48;;;27.70;99.70;;;25.93;55.47;101924.75;4934294;28;20035;-73
2023/08/17 06:14:06;;;;;;;6.57;1.52;;;26.70;99.90;;;25.41;57.29;101932.22;4918390;28;20118;-75
2023/08/17 06:16:32;;;;;;;8.85;1.50;;;25.80;99.90;;;24.83;59.26;101927.50;4938779;28;20558;-73
2023/08/17 06:18:58;;;;;;;7.75;1.15;;;25.30;99.90;;;24.63;59.23;101929.25;4914523;28;20050;-76
2023/08/17 06:21:24;;;;;;;8.65;1.50;;;25.00;99.90;;;25.38;59.52;101922.59;4916984;28;20044;-76
2023/08/17 06:23:50;;;;;;;6.68;1.30;;;25.60;99.90;;;28.76;51.91;101945.53;4931812;28;20043;-76
2023/08/17 06:26:21;;;;;;;9.18;1.40;;;26.40;99.90;;;29.45;49.34;101928.16;4929375;28;20063;-78
2023/08/17 06:28:47;;;;;;;6.25;1.52;;;27.40;99.90;;;29.53;49.56;101942.78;4898832;28;20052;-76
2023/08/17 06:31:15;;;;;;;6.22;1.35;;;28.30;99.90;;;30.36;48.27;101958.97;4938894;28;20186;-76
2023/08/17 06:33:41;;;;;;;7.07;1.20;;;28.60;99.90;;;30.37;47.53;101955.25;4922478;28;22155;-77
2023/08/17 06:36:06;;;;;;;7.50;1.50;;;29.10;99.60;;;30.60;46.66;101966.22;4921842;28;20155;-77
2023/08/17 06:38:37;;;;;;;6.05;1.48;;;29.10;98.90;;;29.54;48.08;101964.31;4923524;28;20038;-76
2023/08/17 06:41:03;;;;;;;8.63;1.50;;;29.00;99.70;;;29.71;48.30;101958.94;4917622;28;20060;-76
2023/08/17 06:43:28;;;;;;;5.43;1.30;;;29.10;99.20;;;29.46;48.16;101958.88;4947580;28;20055;-77
2023/08/17 06:45:56;;;;;;;5.70;1.17;;;29.20;99.30;;;30.83;47.10;101976.34;4928890;28;20651;-76
2023/08/17 06:48:21;;;;;;;8.32;1.40;;;30.30;98.60;;;32.85;43.35;102000.69;4907902;28;20368;-76
2023/08/17 06:50:49;;;;;;;9.13;1.60;;;31.20;97.10;;;32.62;42.77;102000.75;4922102;28;20043;-77
2023/08/17 06:53:15;;;;;;;8.88;1.33;;;31.10;96.30;;;31.05;45.23;101983.75;4917610;28;20040;-75
2023/08/17 06:55:41;;;;;;;6.90;1.08;;;30.80;96.50;;;29.73;47.93;101960.47;4913322;29;20160;-75
2023/08/17 06:58:07;;;;;;;6.25;1.45;;;29.90;97.30;;;28.86;49.71;101951.69;4922198;28;20039;-74
2023/08/17 07:00:33;;;;;;;8.60;1.38;;;29.10;97.60;;;27.51;52.34;101930.31;4918708;29;20039;-74
2023/08/17 07:02:59;;;;;;;12.90;1.38;;;28.20;98.90;;;26.89;53.57;101932.78;4917504;28;20041;-75
2023/08/17 07:05:25;;;;;;;4.65;1.10;;;27.60;99.90;;;26.83;54.89;101919.88;4932354;28;20031;-76
2023/08/17 07:07:51;;;;;;;6.85;1.30;;;27.40;99.90;;;27.12;53.88;101925.97;4920703;28;20518;-76
2023/08/17 07:10:17;;;;;;;5.53;1.10;;;27.10;99.90;;;26.09;55.14;101905.28;4900942;28;20051;-77
2023/08/17 07:12:45;;;;;;;5.57;1.35;;;26.80;99.90;;;26.26;55.36;101891.03;4909581;28;20127;-77
2023/08/17 07:15:12;;;;;;;5.22;1.27;;;27.10;99.90;;;27.76;53.97;101912.47;4940430;28;20129;-76
2023/08/17 07:17:38;;;;;;;5.30;1.25;;;27.10;99.90;;;26.51;54.58;101899.50;4928266;28;20039;-77
2023/08/17 07:20:07;;;;;;;6.60;1.13;;;26.90;99.90;;;26.43;54.82;101896.69;4922134;28;20148;-77
2023/08/17 07:22:36;;;;;;;6.82;1.35;;;26.90;99.90;;;26.81;54.99;101895.72;4922979;28;20059;-77
2023/08/17 07:25:02;;;;;;;5.82;1.30;;;27.00;99.90;;;26.70;53.48;101902.16;4899840;28;20046;-78
2023/08/17 07:27:27;;;;;;;5.25;1.08;;;27.10;99.90;;;26.12;55.15;101883.41;4923526;28;20043;-77
2023/08/17 07:29:53;;;;;;;5.35;1.45;;;26.70;99.90;;;25.67;55.71;101886.69;4912316;28;20138;-76
2023/08/17 07:32:20;;;;;;;5.18;1.10;;;26.50;99.90;;;26.07;55.68;101893.78;4909281;29;20051;-77
2023/08/17 07:34:47;;;;;;;11.63;1.17;;;26.60;99.90;;;26.28;55.62;101899.00;4907680;28;20519;-76
2023/08/17 07:37:13;;;;;;;6.75;1.30;;;26.40;99.90;;;25.75;57.47;101892.22;4928341;28;20062;-76
2023/08/17 07:39:38;;;;;;;4.78;1.08;;;26.40;99.90;;;25.43;56.40;101896.06;4895159;28;20588;-78
2023/08/17 07:42:04;;;;;;;9.40;1.30;;;26.00;99.90;;;25.50;56.88;101902.56;4945251;28;20579;-77
2023/08/17 07:44:34;;;;;;;3.75;0.98;;;26.20;99.90;;;26.05;55.65;101903.84;4919001;28;20567;-77
2023/08/17 07:47:00;;;;;;;5.30;1.23;;;26.50;99.90;;;26.38;55.68;101906.06;4934921;28;20027;-76
2023/08/17 07:49:33;;;;;;;5.90;1.38;;;26.70;99.90;;;26.35;55.02;101898.28;4934459;28;20407;-77
2023/08/17 07:51:59;;;;;;;4.55;1.40;;;26.70;99.90;;;26.53;55.47;101898.34;4943457;28;20035;-75
2023/08/17 07:54:25;;;;;;;8.55;1.33;;;26.80;99.90;;;26.83;55.62;101909.94;4925035;28;20090;-76
2023/08/17 07:56:51;;;;;;;3.15;1.00;;;26.90;99.90;;;26.37;53.66;101903.50;4931350;28;20039;-75
2023/08/17 07:59:17;;;;;;;7.18;1.20;;;26.80;99.90;;;26.10;54.22;101897.03;4934892;28;20471;-75
2023/08/17 08:01:45;;;;;;;2.72;0.82;;;26.60;99.90;;;25.54;55.16;101898.59;4910359;28;20111;-76
2023/08/17 08:04:10;;;;;;;3.03;0.90;;;26.00;99.90;;;24.95;56.02;101884.16;4925792;28;20055;-75
2023/08/17 08:06:36;;;;;;;4.70;1.17;;;25.60;99.90;;;24.71;57.55;101887.19;4918553;28;20146;-75
2023/08/17 08:09:02;;;;;;;4.18;1.30;;;25.30;99.90;;;24.36;57.92;101891.13;4905118;28;20121;-77
2023/08/17 08:11:29;;;;;;;8.95;1.40;;;25.00;99.90;;;24.18;58.97;101878.41;4893343;28;20047;-75
2023/08/17 08:13:55;;;;;;;6.90;1.40;;;24.80;99.90;;;24.19;59.27;101886.34;4924238;28;20078;-75
2023/08/17 08:16:21;;;;;;;7.32;1.20;;;24.80;99.90;;;24.19;59.85;101886.34;4926835;28;20055;-75
2023/08/17 08:18:49;;;;;;;7.57;1.15;;;24.40;99.90;;;23.47;60.38;101871.75;4917882;28;20039;-75
2023/08/17 08:21:17;;;;;;;6.88;1.50;;;24.20;99.90;;;23.25;61.30;101861.06;4913678;28;20043;-75
2023/08/17 08:23:43;;;;;;;5.65;1.23;;;24.30;99.90;;;23.74;60.47;101865.06;4921927;28;20039;-76
2023/08/17 08:26:09;;;;;;;4.97;1.10;;;24.30;99.90;;;23.99;59.81;101871.06;4902550;28;20115;-75
2023/08/17 08:28:35;;;;;;;6.97;1.58;;;24.50;99.90;;;24.07;59.05;101877.47;4922963;28;20123;-75
2023/08/17 08:31:04;;;;;;;8.65;1.27;;;24.40;99.90;;;23.93;58.84;101877.78;4928170;28;20046;-75
2023/08/17 08:33:30;;;;;;;6.43;1.13;;;24.40;99.90;;;23.93;59.83;101875.97;4918259;28;20043;-75
2023/08/17 08:35:56;;;;;;;6.53;1.08;;;24.50;99.90;;;24.20;58.96;101887.19;4909828;28;20050;-75
2023/08/17 08:38:24;;;;;;;4.57;0.88;;;24.60;99.90;;;24.17;58.95;101882.94;4933569;28;20043;-75
2023/08/17 08:40:51;;;;;;;6.43;0.98;;;24.60;99.90;;;24.18;58.39;101878.41;4941723;28;20118;-76
2023/08/17 08:43:17;;;;;;;5.00;0.90;;;24.50;99.90;;;23.70;58.77;101879.72;4924443;28;20122;-76
2023/08/17 08:45:49;;;;;;;4.82;1.10;;;24.30;99.90;;;23.54;58.09;101882.84;4920848;28;20154;-75
2023/08/17 08:48:17;;;;;;;4.70;1.15;;;24.20;99.90;;;23.58;58.43;101881.59;4926489;28;20035;-76
2023/08/17 08:50:46;;;;;;;3.45;1.00;;;24.20;99.90;;;23.60;59.34;101876.94;4932404;28;20395;-75
2023/08/17 08:53:15;;;;;;;5.15;1.05;;;24.10;99.90;;;23.64;59.72;101877.56;4936339;28;20046;-75
2023/08/17 08:56:01;;;;;;;3.90;1.02;;;24.20;99.90;;;23.85;60.32;101883.00;4903042;28;20050;-75
2023/08/17 08:58:29;;;;;;;5.10;1.40;;;24.30;99.90;;;23.97;59.05;101870.31;4927792;28;20463;-76
2023/08/17 09:00:59;;;;;;;9.15;1.55;;;24.40;99.90;;;24.05;59.11;101876.75;4924938;28;20098;-75
2023/08/17 09:03:30;;;;;;;6.47;0.95;;;24.70;99.90;;;24.63;58.06;101884.31;4925699;28;20039;-76
2023/08/17 09:05:57;;;;;;;4.60;0.98;;;25.00;99.90;;;25.07;56.98;101878.66;4930835;28;20042;-76
2023/08/17 09:08:29;;;;;;;3.63;1.05;;;25.40;99.90;;;25.16;56.35;101884.06;4906365;28;20040;-75
2023/08/17 09:10:58;;;;;;;6.82;0.80;;;25.50;99.90;;;25.43;55.77;101877.19;4925632;28;20052;-76
2023/08/17 09:13:27;;;;;;;6.10;1.17;;;25.80;99.90;;;25.79;56.54;101872.06;4924084;28;20043;-75
2023/08/17 09:15:53;;;;;;;3.72;1.10;;;26.00;99.90;;;25.64;57.26;101868.97;4927337;28;20051;-76
2023/08/17 09:18:19;;;;;;;5.85;1.13;;;26.10;99.90;;;25.45;55.86;101868.97;4911317;28;20504;-77
2023/08/17 09:20:47;;;;;;;4.03;1.00;;;26.10;99.90;;;25.36;56.72;101873.34;4909640;28;20054;-76
2023/08/17 09:23:25;;;;;;;3.75;1.02;;;25.80;99.90;;;25.11;57.46;101862.06;4917103;28;20112;-79
2023/08/17 09:25:54;;;;;;;6.60;0.90;;;25.80;99.90;;;25.13;58.15;101865.47;4907556;29;20054;-79
2023/08/17 09:28:20;;;;;;;6.85;1.13;;;25.60;99.90;;;24.89;58.50;101859.63;4924789;23;20047;-79
2023/08/17 09:31:04;;;;;;;4.57;1.02;;;25.80;99.90;;;25.45;57.50;101868.97;4939583;28;20031;-79
2023/08/17 09:33:35;;;;;;;4.03;1.20;;;26.10;99.90;;;25.66;57.62;101877.75;4918938;28;20533;-79
2023/08/17 09:36:01;;;;;;;2.63;0.93;;;26.10;99.90;;;25.65;57.67;101869.81;4944514;28;20080;-78
2023/08/17 09:38:32;;;;;;;3.40;0.93;;;26.30;99.90;;;25.95;56.10;101883.16;4941354;28;20043;-78
2023/08/17 09:41:05;;;;;;;6.65;1.20;;;26.50;99.90;;;26.17;56.32;101883.81;4922476;28;20059;-80
2023/08/17 09:43:33;;;;;;;7.53;1.35;;;26.60;99.90;;;26.21;54.97;101885.22;4931008;28;20066;-78
2023/08/17 09:46:04;;;;;;;4.47;0.80;;;26.50;99.90;;;25.77;55.33;101887.56;4907809;28;20043;-81
2023/08/17 09:48:30;;;;;;;4.80;1.23;;;26.30;99.90;;;25.33;55.59;101885.25;4944163;28;20039;-79
2023/08/17 09:51:01;;;;;;;3.70;0.80;;;26.10;99.90;;;25.20;57.21;101894.59;4898617;28;20039;-79
2023/08/17 09:53:35;;;;;;;2.25;0.77;;;25.60;99.90;;;24.48;55.82;101901.78;4964265;28;20525;-79
2023/08/17 09:56:17;;;;;;;3.55;0.88;;;25.20;99.90;;;24.03;56.89;101891.31;4950197;28;20118;-79
2023/08/17 09:58:44;;;;;;;8.10;1.20;;;25.10;99.90;;;24.34;58.12;101901.16;4940837;28;20047;-79
2023/08/17 10:01:20;;;;;;;4.95;1.00;;;25.20;99.90;;;24.62;57.07;101897.91;4927787;28;20031;-78
2023/08/17 10:03:46;;;;;;;4.10;0.68;;;25.00;99.90;;;24.39;56.98;101886.47;4918976;28;20073;-79
2023/08/17 10:06:26;;;;;;;2.03;0.70;;;25.00;99.90;;;24.45;57.15;101880.50;4911018;28;20160;-79
2023/08/17 10:08:57;;;;;;;9.02;1.23;;;25.30;99.90;;;24.71;57.73;101891.75;4946270;28;20487;-80